createdAt,value
2022-11-16T00:01:41.642Z,99805.53
2022-11-16T00:04:14.721Z,99812.72
2022-11-16T00:06:42.634Z,99805.53
2022-11-16T00:09:27.089Z,99806.31
2022-11-16T00:11:58.236Z,99799.47
2022-11-16T00:14:27.824Z,99803.66
2022-11-16T00:16:56.198Z,99804.13
2022-11-16T00:19:24.622Z,99802.25
2022-11-16T00:21:52.644Z,99802.72
2022-11-16T00:24:21.952Z,99799.00
2022-11-16T00:26:50.835Z,99797.13
2022-11-16T00:29:21.983Z,99802.09
2022-11-16T00:31:50.280Z,99802.09
2022-11-16T00:34:18.660Z,99797.59
2022-11-16T00:36:46.756Z,99790.72
2022-11-16T00:39:16.031Z,99798.34
2022-11-16T00:41:44.799Z,99802.22
2022-11-16T00:44:13.041Z,99795.41
2022-11-16T00:46:42.336Z,99791.63
2022-11-16T00:49:10.575Z,99794.78
2022-11-16T00:51:38.942Z,99797.09
2022-11-16T00:54:08.453Z,99788.03
2022-11-16T00:56:36.517Z,99783.50
2022-11-16T00:59:04.372Z,99783.50
2022-11-16T01:01:32.103Z,99789.59
2022-11-16T01:04:01.163Z,99782.72
2022-11-16T01:06:28.829Z,99779.31
2022-11-16T01:08:56.518Z,99783.06
2022-11-16T01:11:41.573Z,99779.31
2022-11-16T01:14:10.271Z,99781.97
2022-11-16T01:16:37.967Z,99774.47
2022-11-16T01:19:07.497Z,99767.63
2022-11-16T01:21:35.599Z,99772.91
2022-11-16T01:24:03.532Z,99782.44
2022-11-16T01:26:31.126Z,99779.63
2022-11-16T01:28:59.781Z,99780.41
2022-11-16T01:31:27.475Z,99766.06
2022-11-16T01:33:55.496Z,99768.41
2022-11-16T01:36:24.320Z,99770.88
2022-11-16T01:38:52.238Z,99758.56
2022-11-16T01:41:21.470Z,99757.94
2022-11-16T01:43:52.396Z,99759.81
2022-11-16T01:46:20.235Z,99764.34
2022-11-16T01:48:48.804Z,99764.78
2022-11-16T01:51:16.807Z,99767.13
2022-11-16T01:53:45.897Z,99766.94
2022-11-16T01:56:13.606Z,99760.59
2022-11-16T01:58:42.344Z,99759.16
2022-11-16T02:01:09.992Z,99763.72
2022-11-16T02:03:39.132Z,99749.03
2022-11-16T02:06:33.284Z,99746.84
2022-11-16T02:09:37.724Z,99756.66
2022-11-16T02:12:28.593Z,99744.03
2022-11-16T02:15:10.562Z,99740.59
2022-11-16T02:17:47.695Z,99735.63
2022-11-16T02:20:45.314Z,99740.59
2022-11-16T02:23:37.398Z,99737.22
2022-11-16T02:26:23.386Z,99737.22
2022-11-16T02:29:08.028Z,99734.56
2022-11-16T02:31:40.110Z,99732.97
2022-11-16T02:34:11.576Z,99728.47
2022-11-16T02:36:41.537Z,99739.41
2022-11-16T02:39:15.754Z,99732.53
2022-11-16T02:41:47.603Z,99735.63
2022-11-16T02:44:20.892Z,99731.91
2022-11-16T02:46:53.520Z,99728.47
2022-11-16T02:49:22.680Z,99739.84
2022-11-16T02:51:51.826Z,99730.34
2022-11-16T02:54:21.669Z,99728.47
2022-11-16T02:56:54.969Z,99726.59
2022-11-16T02:59:28.767Z,99735.31
2022-11-16T03:02:05.097Z,99735.31
2022-11-16T03:04:37.924Z,99730.00
2022-11-16T03:07:10.981Z,99733.44
2022-11-16T03:09:39.908Z,99737.22
2022-11-16T03:12:09.772Z,99732.66
2022-11-16T03:14:44.590Z,99732.66
2022-11-16T03:17:17.065Z,99736.75
2022-11-16T03:19:50.079Z,99736.75
2022-11-16T03:22:24.285Z,99742.06
2022-11-16T03:24:52.098Z,99743.13
2022-11-16T03:27:28.838Z,99740.16
2022-11-16T03:30:05.561Z,99736.41
2022-11-16T03:32:40.196Z,99746.56
2022-11-16T03:35:15.561Z,99742.06
2022-11-16T03:37:46.568Z,99738.91
2022-11-16T03:40:16.188Z,99737.38
2022-11-16T03:42:45.754Z,99735.03
2022-11-16T03:45:15.139Z,99740.66
2022-11-16T03:47:42.825Z,99749.72
2022-11-16T03:50:11.149Z,99748.47
2022-11-16T03:52:39.495Z,99751.41
2022-11-16T03:55:07.700Z,99746.13
2022-11-16T03:57:35.344Z,99745.34
2022-11-16T04:00:03.024Z,99750.97
2022-11-16T04:02:32.005Z,99759.53
2022-11-16T04:05:17.342Z,99753.78
2022-11-16T04:08:02.625Z,99767.34
2022-11-16T04:11:02.416Z,99769.84
2022-11-16T04:13:50.675Z,99767.06
2022-11-16T04:16:35.730Z,99772.34
2022-11-16T04:19:22.381Z,99765.19
2022-11-16T04:22:10.296Z,99762.09
2022-11-16T04:24:41.002Z,99757.41
2022-11-16T04:27:29.124Z,99765.22
2022-11-16T04:29:58.483Z,99760.25
2022-11-16T04:32:42.926Z,99766.63
2022-11-16T04:35:31.677Z,99762.72
2022-11-16T04:38:00.592Z,99772.41
2022-11-16T04:40:29.562Z,99771.16
2022-11-16T04:42:58.986Z,99775.22
2022-11-16T04:45:46.032Z,99775.34
2022-11-16T04:48:14.945Z,99777.56
2022-11-16T04:50:44.245Z,99774.44
2022-11-16T04:53:12.471Z,99771.63
2022-11-16T04:55:40.205Z,99775.66
2022-11-16T04:58:07.903Z,99782.84
2022-11-16T05:00:35.561Z,99777.25
2022-11-16T05:03:04.773Z,99787.38
2022-11-16T05:05:32.520Z,99788.16
2022-11-16T05:08:01.540Z,99786.91
2022-11-16T05:10:29.188Z,99787.97
2022-11-16T05:12:56.896Z,99784.88
2022-11-16T05:15:24.527Z,99794.38
2022-11-16T05:17:54.856Z,99798.56
2022-11-16T05:20:39.930Z,99795.13
2022-11-16T05:23:29.594Z,99803.88
2022-11-16T05:25:57.239Z,99796.84
2022-11-16T05:28:24.905Z,99811.19
2022-11-16T05:30:52.590Z,99800.13
2022-11-16T05:33:20.216Z,99804.94
2022-11-16T05:35:50.603Z,99811.34
2022-11-16T05:38:19.589Z,99808.84
2022-11-16T05:40:47.285Z,99807.00
2022-11-16T05:43:14.921Z,99810.72
2022-11-16T05:45:44.121Z,99813.50
2022-11-16T05:48:11.925Z,99814.44
2022-11-16T05:50:42.723Z,99811.13
2022-11-16T05:53:10.900Z,99828.91
2022-11-16T05:55:39.882Z,99828.72
2022-11-16T05:58:07.511Z,99827.78
2022-11-16T06:00:35.177Z,99824.69
2022-11-16T06:03:02.878Z,99833.22
2022-11-16T06:05:30.568Z,99831.69
2022-11-16T06:07:58.208Z,99833.22
2022-11-16T06:10:25.840Z,99825.91
2022-11-16T06:12:54.881Z,99819.06
2022-11-16T06:15:22.627Z,99828.06
2022-11-16T06:17:50.281Z,99824.16
2022-11-16T06:20:18.385Z,99821.84
2022-11-16T06:22:46.108Z,99824.03
2022-11-16T06:25:13.787Z,99817.94
2022-11-16T06:27:41.522Z,99826.19
2022-11-16T06:30:11.094Z,99818.06
2022-11-16T06:32:38.906Z,99823.66
2022-11-16T06:35:07.518Z,99831.88
2022-11-16T06:37:35.456Z,99834.06
2022-11-16T06:40:03.181Z,99832.78
2022-11-16T06:42:30.812Z,99824.72
2022-11-16T06:44:58.478Z,99835.88
2022-11-16T06:47:27.493Z,99839.44
2022-11-16T06:49:55.177Z,99840.84
2022-11-16T06:52:22.816Z,99850.78
2022-11-16T06:54:50.524Z,99854.03
2022-11-16T06:57:18.469Z,99851.50
2022-11-16T06:59:46.144Z,99850.56
2022-11-16T07:02:14.095Z,99857.53
2022-11-16T07:04:44.365Z,99859.22
2022-11-16T07:07:12.011Z,99859.81
2022-11-16T07:09:39.722Z,99854.38
2022-11-16T07:12:07.794Z,99854.97
2022-11-16T07:14:35.297Z,99852.63
2022-11-16T07:17:08.010Z,99864.41
2022-11-16T07:19:40.316Z,99865.00
2022-11-16T07:22:09.328Z,99866.41
2022-11-16T07:24:36.974Z,99866.19
2022-11-16T07:27:04.699Z,99881.56
2022-11-16T07:29:32.326Z,99880.31
2022-11-16T07:31:59.989Z,99883.25
2022-11-16T07:34:27.823Z,99889.13
2022-11-16T07:36:55.511Z,99887.59
2022-11-16T07:39:24.485Z,99886.81
2022-11-16T07:41:53.579Z,99893.94
2022-11-16T07:44:21.655Z,99892.38
2022-11-16T07:46:49.191Z,99898.91
2022-11-16T07:49:20.120Z,99905.88
2022-11-16T07:51:48.087Z,99907.75
2022-11-16T07:54:17.009Z,99914.59
2022-11-16T07:56:46.372Z,99916.13
2022-11-16T07:59:14.121Z,99916.94
2022-11-16T08:01:41.862Z,99921.44
2022-11-16T08:04:09.572Z,99926.72
2022-11-16T08:06:37.208Z,99931.72
2022-11-16T08:09:04.931Z,99925.63
2022-11-16T08:11:32.622Z,99935.13
2022-11-16T08:14:01.656Z,99940.59
2022-11-16T08:16:33.162Z,99944.81
2022-11-16T08:19:00.968Z,99931.78
2022-11-16T08:21:28.728Z,99948.56
2022-11-16T08:23:58.736Z,99945.81
2022-11-16T08:26:27.630Z,99949.44
2022-11-16T08:28:56.623Z,99944.53
2022-11-16T08:31:27.632Z,99946.91
2022-11-16T08:33:56.444Z,99949.00
2022-11-16T08:36:24.364Z,99948.47
2022-11-16T08:38:53.064Z,99950.25
2022-11-16T08:41:21.412Z,99949.72
2022-11-16T08:43:50.569Z,99950.41
2022-11-16T08:46:18.741Z,99956.69
2022-11-16T08:48:47.547Z,99959.38
2022-11-16T08:51:19.488Z,99966.25
2022-11-16T08:53:48.993Z,99954.47
2022-11-16T08:56:18.661Z,99962.44
2022-11-16T08:58:47.135Z,99963.56
2022-11-16T09:01:17.586Z,99961.22
2022-11-16T09:03:47.605Z,99956.41
2022-11-16T09:06:16.261Z,99966.72
2022-11-16T09:08:45.873Z,99960.50
2022-11-16T09:11:15.851Z,99958.75
2022-11-16T09:13:44.192Z,99969.69
2022-11-16T09:16:12.307Z,99963.13
2022-11-16T09:18:40.622Z,99962.47
2022-11-16T09:21:09.831Z,99965.91
2022-11-16T09:23:37.664Z,99966.53
2022-11-16T09:26:06.575Z,99968.44
2022-11-16T09:28:34.800Z,99973.41
2022-11-16T09:31:06.093Z,99971.81
2022-11-16T09:33:35.043Z,99973.19
2022-11-16T09:36:06.810Z,99969.81
2022-11-16T09:38:55.725Z,99974.47
2022-11-16T09:41:45.223Z,99973.84
2022-11-16T09:44:21.410Z,99981.81
2022-11-16T09:46:55.148Z,99987.16
2022-11-16T09:49:27.084Z,99980.31
2022-11-16T09:52:00.279Z,99985.31
2022-11-16T09:54:35.099Z,99986.41
2022-11-16T09:57:12.182Z,99979.31
2022-11-16T09:59:45.065Z,99985.56
2022-11-16T10:02:22.172Z,99982.56
2022-11-16T10:04:58.483Z,99984.47
2022-11-16T10:07:32.548Z,99990.06
2022-11-16T10:10:01.728Z,99975.69
2022-11-16T10:12:37.617Z,99979.75
2022-11-16T10:15:17.445Z,99983.31
2022-11-16T10:17:57.664Z,99975.75
2022-11-16T10:21:02.035Z,99980.47
2022-11-16T10:23:41.566Z,99977.81
2022-11-16T10:26:22.338Z,99968.00
2022-11-16T10:29:17.024Z,99972.72
2022-11-16T10:31:57.996Z,99982.16
2022-11-16T10:34:28.023Z,99978.78
2022-11-16T10:37:03.301Z,99969.56
2022-11-16T10:39:33.971Z,99975.13
2022-11-16T10:42:07.820Z,99980.69
2022-11-16T10:44:39.767Z,99973.41
2022-11-16T10:47:16.325Z,99974.56
2022-11-16T10:49:52.801Z,99982.53
2022-11-16T10:52:20.880Z,99980.88
2022-11-16T10:54:48.518Z,99994.66
2022-11-16T10:57:17.864Z,99984.25
2022-11-16T10:59:47.678Z,99977.66
2022-11-16T11:02:31.006Z,99978.41
2022-11-16T11:05:17.452Z,99985.59
2022-11-16T11:07:54.052Z,99977.41
2022-11-16T11:10:35.381Z,99972.75
2022-11-16T11:13:08.054Z,99989.16
2022-11-16T11:15:35.813Z,99978.63
2022-11-16T11:18:29.771Z,99977.63
2022-11-16T11:21:10.141Z,99973.81
2022-11-16T11:23:44.997Z,99980.00
2022-11-16T11:26:34.760Z,99975.47
2022-11-16T11:29:17.800Z,99968.94
2022-11-16T11:31:47.275Z,99966.56
2022-11-16T11:34:18.881Z,99962.28
2022-11-16T11:36:50.327Z,99955.47
2022-11-16T11:39:31.841Z,99953.47
2022-11-16T11:42:06.428Z,99944.69
2022-11-16T11:44:49.188Z,99940.16
2022-11-16T11:47:57.266Z,99945.91
2022-11-16T11:50:36.126Z,99935.88
2022-11-16T11:53:07.931Z,99942.31
2022-11-16T11:55:35.709Z,99930.94
2022-11-16T11:58:04.970Z,99932.38
2022-11-16T12:00:42.251Z,99938.22
2022-11-16T12:03:37.117Z,99935.25
2022-11-16T12:06:10.828Z,99944.38
2022-11-16T12:09:09.223Z,99944.88
2022-11-16T12:11:49.631Z,99946.00
2022-11-16T12:14:29.929Z,99938.03
2022-11-16T12:17:08.393Z,99942.16
2022-11-16T12:19:56.249Z,99949.91
2022-11-16T12:22:41.165Z,99944.13
2022-11-16T12:25:20.732Z,99939.84
2022-11-16T12:27:57.759Z,99939.16
2022-11-16T12:30:25.931Z,99938.38
2022-11-16T12:33:16.691Z,99944.13
2022-11-16T12:35:57.148Z,99942.59
2022-11-16T12:38:38.279Z,99951.13
2022-11-16T12:41:31.457Z,99931.16
2022-11-16T12:44:02.069Z,99928.88
2022-11-16T12:46:41.024Z,99926.38
2022-11-16T12:49:41.929Z,99919.41
2022-11-16T12:52:22.935Z,99903.66
2022-11-16T12:55:28.223Z,99900.59
2022-11-16T12:58:13.983Z,99902.47
2022-11-16T13:00:54.172Z,99899.59
2022-11-16T13:03:29.057Z,99904.03
2022-11-16T13:06:03.199Z,99889.22
2022-11-16T13:08:39.569Z,99902.03
2022-11-16T13:11:12.533Z,99898.69
2022-11-16T13:13:42.049Z,99900.16
2022-11-16T13:16:11.777Z,99902.22
2022-11-16T13:18:42.611Z,99897.31
2022-11-16T13:21:23.011Z,99890.09
2022-11-16T13:24:03.240Z,99895.16
2022-11-16T13:26:36.825Z,99885.41
2022-11-16T13:29:15.392Z,99882.34
2022-11-16T13:31:52.370Z,99879.91
2022-11-16T13:34:25.328Z,99886.28
2022-11-16T13:36:54.316Z,99888.22
2022-11-16T13:39:56.845Z,99891.78
2022-11-16T13:42:25.157Z,99897.22
2022-11-16T13:44:54.213Z,99893.44
2022-11-16T13:47:23.644Z,99892.69
2022-11-16T13:49:53.684Z,99892.34
2022-11-16T13:52:25.005Z,99895.69
2022-11-16T13:55:13.675Z,99885.00
2022-11-16T13:57:52.010Z,99883.66
2022-11-16T14:00:24.613Z,99870.88
2022-11-16T14:03:27.487Z,99874.44
2022-11-16T14:05:55.213Z,99864.06
2022-11-16T14:08:53.332Z,99865.75
2022-11-16T14:11:33.085Z,99862.97
2022-11-16T14:14:02.232Z,99863.22
2022-11-16T14:16:54.542Z,99864.31
2022-11-16T14:19:55.072Z,99859.66
2022-11-16T14:22:55.153Z,99856.25
2022-11-16T14:25:31.810Z,99855.81
2022-11-16T14:28:10.159Z,99855.13
2022-11-16T14:30:52.410Z,99849.78
2022-11-16T14:33:30.299Z,99848.03
2022-11-16T14:35:58.136Z,99836.03
2022-11-16T14:38:29.873Z,99850.84
2022-11-16T14:41:00.509Z,99845.72
2022-11-16T14:43:33.871Z,99847.34
2022-11-16T14:46:05.210Z,99840.16
2022-11-16T14:48:33.221Z,99834.44
2022-11-16T14:51:07.356Z,99831.13
2022-11-16T14:53:37.612Z,99823.34
2022-11-16T14:56:14.814Z,99825.69
2022-11-16T14:58:52.156Z,99820.25
2022-11-16T15:01:23.797Z,99820.13
2022-11-16T15:03:56.817Z,99820.22
2022-11-16T15:06:26.986Z,99812.66
2022-11-16T15:08:58.578Z,99813.19
2022-11-16T15:11:50.694Z,99814.81
2022-11-16T15:14:22.160Z,99815.03
2022-11-16T15:16:52.259Z,99806.59
2022-11-16T15:19:20.391Z,99799.31
2022-11-16T15:21:53.421Z,99795.00
2022-11-16T15:24:31.104Z,99797.22
2022-11-16T15:27:11.327Z,99799.50
2022-11-16T15:29:39.729Z,99781.09
2022-11-16T15:32:14.047Z,99790.78
2022-11-16T15:34:41.739Z,99781.47
2022-11-16T15:37:12.485Z,99785.13
2022-11-16T15:39:40.941Z,99780.00
2022-11-16T15:42:15.506Z,99773.63
2022-11-16T15:44:44.092Z,99767.09
2022-11-16T15:47:14.484Z,99770.59
2022-11-16T15:49:44.084Z,99763.47
2022-11-16T15:52:11.968Z,99758.56
2022-11-16T15:54:53.427Z,99738.94
2022-11-16T15:57:23.975Z,99748.03
2022-11-16T15:59:54.913Z,99743.56
2022-11-16T16:02:25.088Z,99740.00
2022-11-16T16:04:52.850Z,99735.50
2022-11-16T16:07:38.820Z,99738.66
2022-11-16T16:10:15.102Z,99723.41
2022-11-16T16:12:51.740Z,99711.09
2022-11-16T16:15:24.719Z,99730.13
2022-11-16T16:17:53.629Z,99738.91
2022-11-16T16:20:24.909Z,99735.69
2022-11-16T16:22:54.186Z,99745.81
2022-11-16T16:25:30.433Z,99747.56
2022-11-16T16:27:59.873Z,99738.69
2022-11-16T16:30:29.441Z,99735.31
2022-11-16T16:32:57.299Z,99723.47
2022-11-16T16:35:26.514Z,99723.31
2022-11-16T16:37:58.742Z,99717.88
2022-11-16T16:40:26.485Z,99707.59
2022-11-16T16:42:55.863Z,99708.69
2022-11-16T16:45:35.330Z,99712.44
2022-11-16T16:48:03.024Z,99716.81
2022-11-16T16:50:30.691Z,99702.78
2022-11-16T16:52:58.485Z,99704.50
2022-11-16T16:55:26.181Z,99706.06
2022-11-16T16:57:56.514Z,99708.56
2022-11-16T17:00:24.416Z,99702.66
2022-11-16T17:02:53.562Z,99701.06
2022-11-16T17:05:21.252Z,99694.25
2022-11-16T17:07:48.926Z,99691.13
2022-11-16T17:10:17.437Z,99684.13
2022-11-16T17:12:45.102Z,99689.25
2022-11-16T17:15:18.018Z,99688.34
2022-11-16T17:17:46.941Z,99693.31
2022-11-16T17:20:17.581Z,99685.25
2022-11-16T17:22:45.945Z,99675.28
2022-11-16T17:25:14.875Z,99682.28
2022-11-16T17:27:42.515Z,99684.94
2022-11-16T17:30:11.469Z,99682.13
2022-11-16T17:32:39.098Z,99685.69
2022-11-16T17:35:07.048Z,99683.66
2022-11-16T17:37:36.052Z,99688.03
2022-11-16T17:40:08.160Z,99683.84
2022-11-16T17:42:36.056Z,99692.25
2022-11-16T17:45:04.462Z,99684.75
2022-11-16T17:47:33.429Z,99673.41
2022-11-16T17:50:01.741Z,99672.16
2022-11-16T17:52:29.400Z,99664.84
2022-11-16T17:54:58.380Z,99664.06
2022-11-16T17:57:26.045Z,99661.56
2022-11-16T17:59:53.691Z,99661.09
2022-11-16T18:02:21.313Z,99653.50
2022-11-16T18:04:51.239Z,99657.50
2022-11-16T18:07:19.353Z,99653.28
2022-11-16T18:09:47.087Z,99653.28
2022-11-16T18:12:16.081Z,99658.13
2022-11-16T18:14:59.822Z,99653.28
2022-11-16T18:17:32.493Z,99648.78
2022-11-16T18:20:00.213Z,99650.84
2022-11-16T18:22:27.902Z,99647.88
2022-11-16T18:24:55.558Z,99642.59
2022-11-16T18:27:24.550Z,99643.38
2022-11-16T18:29:52.222Z,99655.81
2022-11-16T18:32:20.027Z,99652.09
2022-11-16T18:34:47.708Z,99648.06
2022-11-16T18:37:15.384Z,99648.84
2022-11-16T18:39:43.004Z,99646.19
2022-11-16T18:42:12.603Z,99645.41
2022-11-16T18:44:41.606Z,99645.41
2022-11-16T18:47:09.219Z,99640.91
2022-11-16T18:49:36.853Z,99637.47
2022-11-16T18:52:04.877Z,99623.78
2022-11-16T18:54:32.341Z,99622.53
2022-11-16T18:56:59.963Z,99626.25
2022-11-16T18:59:27.713Z,99616.75
2022-11-16T19:01:56.841Z,99622.06
2022-11-16T19:04:24.707Z,99619.13
2022-11-16T19:06:52.407Z,99605.56
2022-11-16T19:09:20.080Z,99611.63
2022-11-16T19:11:47.692Z,99611.03
2022-11-16T19:14:15.342Z,99606.53
2022-11-16T19:16:52.518Z,99601.69
2022-11-16T19:19:25.357Z,99586.91
2022-11-16T19:21:53.091Z,99573.34
2022-11-16T19:24:20.795Z,99560.44
2022-11-16T19:26:48.435Z,99560.13
2022-11-16T19:29:16.132Z,99553.28
2022-11-16T19:31:43.769Z,99546.91
2022-11-16T19:34:12.847Z,99537.88
2022-11-16T19:36:41.858Z,99534.44
2022-11-16T19:39:09.561Z,99534.44
2022-11-16T19:41:37.297Z,99532.59
2022-11-16T19:44:04.956Z,99524.66
2022-11-16T19:46:34.149Z,99526.97
2022-11-16T19:49:02.416Z,99516.41
2022-11-16T19:51:32.417Z,99512.22
2022-11-16T19:54:02.899Z,99509.56
2022-11-16T19:56:30.961Z,99497.13
2022-11-16T19:58:58.831Z,99491.06
2022-11-16T20:01:29.353Z,99488.69
2022-11-16T20:03:58.508Z,99483.75
2022-11-16T20:06:29.350Z,99484.53
2022-11-16T20:09:00.610Z,99473.47
2022-11-16T20:11:31.197Z,99467.88
2022-11-16T20:13:59.630Z,99461.03
2022-11-16T20:16:34.071Z,99458.69
2022-11-16T20:19:06.510Z,99447.03
2022-11-16T20:21:35.912Z,99440.50
2022-11-16T20:24:07.138Z,99442.38
2022-11-16T20:26:38.266Z,99449.53
2022-11-16T20:29:05.935Z,99440.81
2022-11-16T20:31:34.691Z,99444.22
2022-11-16T20:34:04.087Z,99443.44
2022-11-16T20:36:32.957Z,99436.75
2022-11-16T20:39:01.818Z,99430.38
2022-11-16T20:41:30.608Z,99428.19
2022-11-16T20:44:02.238Z,99426.34
2022-11-16T20:46:31.743Z,99421.03
2022-11-16T20:49:00.864Z,99413.56
2022-11-16T20:51:29.685Z,99405.63
2022-11-16T20:53:57.692Z,99407.94
2022-11-16T20:56:25.747Z,99399.72
2022-11-16T20:58:53.219Z,99396.28
2022-11-16T21:01:28.725Z,99402.34
2022-11-16T21:03:57.007Z,99397.06
2022-11-16T21:06:24.682Z,99395.94
2022-11-16T21:08:52.390Z,99389.91
2022-11-16T21:11:22.598Z,99380.88
2022-11-16T21:14:08.255Z,99377.44
2022-11-16T21:16:37.569Z,99366.41
2022-11-16T21:19:05.465Z,99352.41
2022-11-16T21:21:33.733Z,99346.03
2022-11-16T21:24:01.687Z,99334.66
2022-11-16T21:26:31.096Z,99341.81
2022-11-16T21:28:59.633Z,99339.50
2022-11-16T21:31:29.879Z,99323.63
2022-11-16T21:34:00.514Z,99330.78
2022-11-16T21:36:29.929Z,99314.91
2022-11-16T21:38:58.440Z,99320.22
2022-11-16T21:41:26.785Z,99314.13
2022-11-16T21:43:54.721Z,99300.91
2022-11-16T21:46:24.678Z,99296.41
2022-11-16T21:48:52.848Z,99289.56
2022-11-16T21:51:24.685Z,99280.53
2022-11-16T21:53:52.539Z,99276.34
2022-11-16T21:56:22.372Z,99271.06
2022-11-16T21:58:52.654Z,99269.50
2022-11-16T22:01:20.983Z,99260.03
2022-11-16T22:04:08.740Z,99252.41
2022-11-16T22:06:55.400Z,99255.38
2022-11-16T22:09:23.089Z,99256.16
2022-11-16T22:11:50.738Z,99239.50
2022-11-16T22:14:18.407Z,99239.50
2022-11-16T22:16:46.090Z,99235.31
2022-11-16T22:19:13.771Z,99236.88
2022-11-16T22:21:42.821Z,99213.06
2022-11-16T22:24:10.466Z,99216.50
2022-11-16T22:26:39.865Z,99205.13
2022-11-16T22:29:07.567Z,99190.03
2022-11-16T22:31:36.054Z,99188.16
2022-11-16T22:34:04.004Z,99187.06
2022-11-16T22:36:31.690Z,99165.13
2022-11-16T22:39:01.993Z,99163.59
2022-11-16T22:41:29.676Z,99152.69
2022-11-16T22:43:57.330Z,99149.25
2022-11-16T22:46:24.953Z,99143.19
2022-11-16T22:48:52.595Z,99140.53
2022-11-16T22:51:22.380Z,99134.16
2022-11-16T22:53:54.045Z,99128.09
2022-11-16T22:56:23.266Z,99117.84
2022-11-16T22:58:51.363Z,99102.28
2022-11-16T23:01:19.155Z,99094.34
2022-11-16T23:03:47.361Z,99083.97
2022-11-16T23:06:15.137Z,99081.63
2022-11-16T23:08:42.866Z,99081.63
2022-11-16T23:11:30.984Z,99065.31
2022-11-16T23:14:17.945Z,99059.94
2022-11-16T23:16:46.078Z,99055.63
2022-11-16T23:19:28.662Z,99052.97
2022-11-16T23:22:14.817Z,99048.63
2022-11-16T23:25:00.036Z,99052.38
2022-11-16T23:27:38.626Z,99035.75
2022-11-16T23:30:12.881Z,99028.16
2022-11-16T23:32:41.589Z,99036.38
2022-11-16T23:35:10.975Z,99017.13
2022-11-16T23:37:51.490Z,99014.16
2022-11-16T23:40:19.616Z,99000.81
2022-11-16T23:43:04.454Z,98989.94
2022-11-16T23:45:33.704Z,98984.84
2022-11-16T23:48:01.454Z,98970.41
2022-11-16T23:50:29.230Z,98952.22
2022-11-16T23:52:56.894Z,98934.47
2022-11-16T23:55:24.563Z,98924.25
2022-11-16T23:57:52.330Z,98912.91
